Time;durP1;ratioP1;P1;durP2;ratioP2;P2;SDS_P1;SDS_P2;PMS_P1;PMS_P2;Temp;Humidity;BMP_temperature;BMP_pressure;BME280_temperature;BME280_humidity;BME280_pressure;Samples;Min_cycle;Max_cycle;Signal;HPM_P1;HPM_P2
2022/08/02 00:00:56;;;;;;;2.07;1.97;;;17.20;99.90;;;;;;493272;241;28758;-68
2022/08/02 00:02:57;;;;;;;1.93;1.83;;;17.30;99.90;;;;;;493257;241;28706;-69
2022/08/02 00:04:58;;;;;;;2.10;2.00;;;17.30;99.90;;;;;;493290;241;28844;-71
2022/08/02 00:07:00;;;;;;;2.10;2.00;;;17.30;99.90;;;;;;493224;241;28675;-69
2022/08/02 00:09:01;;;;;;;2.10;2.00;;;17.20;99.90;;;;;;493263;241;29154;-69
2022/08/02 00:11:02;;;;;;;2.47;2.37;;;17.20;99.90;;;;;;493241;241;29150;-67
2022/08/02 00:13:03;;;;;;;2.10;2.00;;;17.20;99.90;;;;;;493272;241;29153;-69
2022/08/02 00:15:05;;;;;;;1.93;1.83;;;17.30;99.90;;;;;;493337;241;28718;-70
2022/08/02 00:17:06;;;;;;;2.40;2.30;;;17.30;99.90;;;;;;493249;241;28667;-68
2022/08/02 00:19:07;;;;;;;2.10;2.00;;;17.30;99.90;;;;;;493302;241;28699;-69
2022/08/02 00:21:08;;;;;;;1.93;1.83;;;17.20;99.90;;;;;;493287;241;28754;-68
2022/08/02 00:23:10;;;;;;;2.10;2.00;;;17.20;99.90;;;;;;493287;241;28740;-68
2022/08/02 00:25:11;;;;;;;2.20;2.10;;;17.20;99.90;;;;;;493292;241;28719;-71
2022/08/02 00:27:12;;;;;;;2.20;2.10;;;17.20;99.90;;;;;;493232;241;28703;-69
2022/08/02 00:29:13;;;;;;;2.10;1.90;;;17.30;99.90;;;;;;493284;241;28743;-68
2022/08/02 00:31:15;;;;;;;1.90;1.80;;;17.30;99.90;;;;;;493231;241;28738;-68
2022/08/02 00:33:16;;;;;;;2.10;2.00;;;17.30;99.90;;;;;;493303;241;29116;-69
2022/08/02 00:35:17;;;;;;;2.60;2.10;;;17.20;99.90;;;;;;493140;240;29765;-71
2022/08/02 00:37:18;;;;;;;2.43;2.27;;;17.20;99.90;;;;;;493223;241;29208;-68
2022/08/02 00:39:20;;;;;;;2.20;2.10;;;17.20;99.90;;;;;;493246;241;29266;-69
2022/08/02 00:41:21;;;;;;;2.20;2.10;;;17.30;99.90;;;;;;493249;241;28670;-68
2022/08/02 00:43:22;;;;;;;1.80;1.70;;;17.20;99.90;;;;;;493279;241;28732;-68
2022/08/02 00:45:23;;;;;;;2.00;1.90;;;17.30;99.90;;;;;;493281;241;28778;-70
2022/08/02 00:47:25;;;;;;;2.10;2.00;;;17.30;99.90;;;;;;493214;241;28718;-69
2022/08/02 00:49:26;;;;;;;2.00;1.90;;;17.20;99.90;;;;;;493273;241;28726;-69
2022/08/02 00:51:27;;;;;;;2.07;1.97;;;17.20;99.90;;;;;;493220;241;28695;-71
2022/08/02 00:53:28;;;;;;;2.10;2.00;;;17.20;99.90;;;;;;493282;241;28718;-68
2022/08/02 00:55:30;;;;;;;2.10;2.00;;;17.30;99.90;;;;;;493266;241;28715;-70
2022/08/02 00:57:31;;;;;;;2.30;2.20;;;17.30;99.90;;;;;;493188;241;29135;-68
2022/08/02 00:59:32;;;;;;;2.27;2.17;;;17.30;99.90;;;;;;493256;241;29166;-68
2022/08/02 01:01:40;;;;;;;2.10;2.00;;;17.40;99.90;;;;;;493283;241;29930;-68
2022/08/02 01:03:41;;;;;;;1.90;1.80;;;17.40;99.90;;;;;;493282;241;28668;-68
2022/08/02 01:05:43;;;;;;;2.20;2.10;;;17.40;99.90;;;;;;493275;241;28735;-69
2022/08/02 01:07:43;;;;;;;2.30;2.20;;;17.30;99.90;;;;;;493193;241;28773;-68
2022/08/02 01:09:44;;;;;;;2.37;2.27;;;17.30;99.90;;;;;;493245;241;28742;-69
2022/08/02 01:11:46;;;;;;;2.10;2.00;;;17.30;99.90;;;;;;493257;241;28870;-68
2022/08/02 01:13:47;;;;;;;4.70;2.33;;;17.20;99.90;;;;;;493272;241;29148;-68
2022/08/02 01:15:48;;;;;;;2.10;2.00;;;17.10;99.90;;;;;;493255;241;29195;-71
2022/08/02 01:17:49;;;;;;;2.30;2.20;;;17.10;99.90;;;;;;493223;241;29138;-68
2022/08/02 01:19:51;;;;;;;2.30;2.20;;;17.10;99.90;;;;;;493272;241;28710;-69
2022/08/02 01:21:52;;;;;;;2.40;2.30;;;17.00;99.90;;;;;;493252;241;28773;-68
2022/08/02 01:23:53;;;;;;;2.30;2.20;;;17.00;99.90;;;;;;493271;241;28739;-67
2022/08/02 01:25:54;;;;;;;2.37;2.27;;;16.90;99.90;;;;;;493279;241;28775;-71
2022/08/02 01:27:56;;;;;;;1.90;1.80;;;16.90;99.90;;;;;;493195;241;28706;-69
2022/08/02 01:29:57;;;;;;;2.73;2.53;;;16.90;99.90;;;;;;493237;241;28768;-69
2022/08/02 01:31:58;;;;;;;2.50;2.30;;;16.80;99.90;;;;;;493244;241;28790;-69
2022/08/02 01:33:59;;;;;;;2.57;2.47;;;16.80;99.90;;;;;;493261;241;28669;-68
2022/08/02 01:36:01;;;;;;;2.57;2.40;;;16.80;99.90;;;;;;493095;241;28715;-76
2022/08/02 01:38:02;;;;;;;2.47;2.30;;;16.70;99.90;;;;;;493191;241;28664;-68
2022/08/02 01:40:03;;;;;;;2.53;2.40;;;16.70;99.90;;;;;;493245;241;28691;-69
2022/08/02 01:42:04;;;;;;;2.60;2.40;;;16.70;99.90;;;;;;493273;241;28696;-68
2022/08/02 01:44:06;;;;;;;2.23;2.13;;;16.70;99.90;;;;;;493271;241;28684;-69
2022/08/02 01:46:07;;;;;;;2.40;2.30;;;16.70;99.90;;;;;;493208;241;28782;-72
2022/08/02 01:48:08;;;;;;;2.60;2.40;;;16.60;99.90;;;;;;493224;241;28670;-67
2022/08/02 01:50:09;;;;;;;2.50;2.40;;;16.50;99.90;;;;;;493251;241;29212;-68
2022/08/02 01:52:24;;;;;;;2.60;2.50;;;16.50;99.90;;;;;;493240;241;29910;-68
2022/08/02 01:54:24;;;;;;;2.30;2.20;;;16.50;99.90;;;;;;493197;241;28738;-68
2022/08/02 01:56:25;;;;;;;2.40;2.30;;;16.50;99.90;;;;;;493211;241;28727;-69
2022/08/02 01:58:26;;;;;;;2.60;2.40;;;16.50;99.90;;;;;;493269;241;28676;-68
2022/08/02 02:00:28;;;;;;;2.70;2.50;;;16.40;99.90;;;;;;493242;241;28704;-68
2022/08/02 02:02:29;;;;;;;2.30;2.20;;;16.30;99.90;;;;;;493287;241;29260;-71
2022/08/02 02:04:30;;;;;;;2.67;2.47;;;16.30;99.90;;;;;;493279;241;29135;-68
2022/08/02 02:06:32;;;;;;;2.53;2.40;;;16.30;99.90;;;;;;493227;241;29345;-70
2022/08/02 02:08:33;;;;;;;2.37;2.27;;;16.30;99.90;;;;;;493215;241;29224;-69
2022/08/02 02:10:34;;;;;;;2.30;2.20;;;16.30;99.90;;;;;;493269;241;28726;-69
2022/08/02 02:12:35;;;;;;;2.20;2.10;;;16.40;99.90;;;;;;493274;241;28719;-71
2022/08/02 02:14:37;;;;;;;3.00;2.43;;;16.40;99.90;;;;;;493289;241;28668;-68
2022/08/02 02:16:38;;;;;;;2.27;2.17;;;16.50;99.90;;;;;;493219;241;28779;-69
2022/08/02 02:18:39;;;;;;;2.20;2.10;;;16.50;99.90;;;;;;493258;241;28667;-68
2022/08/02 02:20:40;;;;;;;2.67;2.47;;;16.50;99.90;;;;;;493250;241;28766;-69
2022/08/02 02:22:42;;;;;;;2.70;2.60;;;16.60;99.90;;;;;;493265;241;28743;-72
2022/08/02 02:24:43;;;;;;;2.60;2.50;;;16.50;99.90;;;;;;493276;241;28676;-68
2022/08/02 02:26:44;;;;;;;2.93;2.73;;;16.50;99.90;;;;;;493188;241;28703;-69
2022/08/02 02:28:45;;;;;;;2.60;2.40;;;16.50;99.90;;;;;;493242;241;29179;-68
2022/08/02 02:30:47;;;;;;;2.90;2.70;;;16.50;99.90;;;;;;493260;241;29267;-68
2022/08/02 02:32:48;;;;;;;2.60;2.50;;;16.50;99.90;;;;;;493252;241;29273;-71
2022/08/02 02:34:49;;;;;;;2.60;2.20;;;16.50;99.90;;;;;;493238;241;28783;-68
2022/08/02 02:36:50;;;;;;;3.13;2.93;;;16.50;99.90;;;;;;492999;241;28791;-69
2022/08/02 02:38:52;;;;;;;2.43;2.33;;;16.50;99.90;;;;;;493229;241;28664;-68
2022/08/02 02:40:53;;;;;;;2.70;2.50;;;16.50;99.90;;;;;;493264;241;28665;-68
2022/08/02 02:42:54;;;;;;;4.13;2.77;;;16.50;99.90;;;;;;493275;241;28786;-70
2022/08/02 02:44:55;;;;;;;2.87;2.67;;;16.50;99.90;;;;;;493255;241;28732;-69
2022/08/02 02:46:57;;;;;;;2.77;2.57;;;16.50;99.90;;;;;;493191;241;28817;-68
2022/08/02 02:48:58;;;;;;;2.73;2.53;;;16.50;99.90;;;;;;493233;241;29053;-68
2022/08/02 02:50:59;;;;;;;2.47;2.33;;;16.40;99.90;;;;;;493277;241;28673;-68
2022/08/02 02:53:00;;;;;;;2.67;2.57;;;16.40;99.90;;;;;;493258;241;29231;-69
2022/08/02 02:55:02;;;;;;;2.50;2.40;;;16.30;99.90;;;;;;493242;241;29144;-68
2022/08/02 02:57:03;;;;;;;2.80;2.60;;;16.30;99.90;;;;;;493182;241;29291;-67
2022/08/02 02:59:04;;;;;;;2.40;2.30;;;16.30;99.90;;;;;;493293;241;29262;-71
2022/08/02 03:03:25;;;;;;;2.83;2.63;;;16.30;99.90;;;;;;493241;241;29208;-69
2022/08/02 03:05:26;;;;;;;2.93;2.70;;;16.30;99.90;;;;;;493222;241;30046;-68
2022/08/02 03:07:27;;;;;;;6.27;3.33;;;16.30;99.90;;;;;;493201;241;29239;-68
2022/08/02 03:09:29;;;;;;;3.00;2.80;;;16.40;99.90;;;;;;493255;241;28737;-69
2022/08/02 03:11:30;;;;;;;2.90;2.70;;;16.40;99.90;;;;;;493232;241;28763;-68
2022/08/02 03:13:31;;;;;;;2.90;2.70;;;16.40;99.90;;;;;;493238;241;28794;-68
2022/08/02 03:15:32;;;;;;;3.20;2.90;;;16.40;99.90;;;;;;493229;241;28776;-68
2022/08/02 03:17:34;;;;;;;3.40;3.10;;;16.40;99.90;;;;;;493185;241;28674;-68
2022/08/02 03:19:35;;;;;;;3.20;2.93;;;16.40;99.90;;;;;;493236;241;28709;-70
2022/08/02 03:21:36;;;;;;;2.60;2.40;;;16.40;99.90;;;;;;493205;241;28684;-69
2022/08/02 03:23:38;;;;;;;2.87;2.67;;;16.40;99.90;;;;;;493206;241;28700;-69
2022/08/02 03:25:39;;;;;;;3.30;3.10;;;16.30;99.90;;;;;;493204;241;29202;-68
2022/08/02 03:27:40;;;;;;;3.20;3.00;;;16.30;99.90;;;;;;493172;241;29142;-68
2022/08/02 03:29:41;;;;;;;3.00;2.80;;;16.40;99.90;;;;;;493227;241;29303;-68
2022/08/02 03:31:42;;;;;;;3.03;2.77;;;16.30;99.90;;;;;;493175;241;29122;-68
2022/08/02 03:33:44;;;;;;;3.27;3.07;;;16.30;99.90;;;;;;493235;241;29176;-69
2022/08/02 03:35:45;;;;;;;3.50;3.20;;;16.20;99.90;;;;;;493100;241;28848;-68
2022/08/02 03:37:46;;;;;;;2.83;2.63;;;16.20;99.90;;;;;;493199;241;28716;-68
2022/08/02 03:39:47;;;;;;;3.20;3.00;;;16.30;99.90;;;;;;493248;241;28705;-71
2022/08/02 03:41:49;;;;;;;3.50;3.20;;;16.30;99.90;;;;;;493176;241;28669;-69
2022/08/02 03:43:50;;;;;;;3.07;2.87;;;16.30;99.90;;;;;;493231;241;28713;-68
2022/08/02 03:45:51;;;;;;;3.20;3.00;;;16.30;99.90;;;;;;493310;241;28777;-73
2022/08/02 03:47:52;;;;;;;3.30;3.00;;;16.30;99.90;;;;;;493185;241;28675;-68
2022/08/02 03:49:54;;;;;;;3.03;2.83;;;16.30;99.90;;;;;;493231;241;28713;-69
2022/08/02 03:51:55;;;;;;;3.00;2.80;;;16.30;99.90;;;;;;493236;241;30130;-68
2022/08/02 03:53:56;;;;;;;3.30;3.00;;;16.30;99.90;;;;;;493257;241;29302;-68
2022/08/02 03:55:57;;;;;;;2.80;2.60;;;16.20;99.90;;;;;;493270;241;29380;-68
2022/08/02 03:57:59;;;;;;;3.27;2.97;;;16.20;99.90;;;;;;493232;241;29134;-68
2022/08/02 04:00:00;;;;;;;2.90;2.70;;;16.20;99.90;;;;;;493264;241;28696;-70
2022/08/02 04:02:01;;;;;;;3.10;2.90;;;16.20;99.90;;;;;;493244;241;28686;-68
2022/08/02 04:04:02;;;;;;;2.50;2.40;;;16.20;99.90;;;;;;493229;241;28735;-69
2022/08/02 04:06:04;;;;;;;3.20;3.00;;;16.20;99.90;;;;;;493240;241;28709;-71
2022/08/02 04:08:05;;;;;;;3.20;3.00;;;16.10;99.90;;;;;;493266;241;28677;-69
2022/08/02 04:10:06;;;;;;;3.60;3.30;;;16.10;99.90;;;;;;493240;241;28719;-69
2022/08/02 04:12:07;;;;;;;3.00;2.80;;;16.10;99.90;;;;;;493203;241;28768;-68
2022/08/02 04:14:09;;;;;;;2.57;2.37;;;16.10;99.90;;;;;;493222;241;28772;-69
2022/08/02 04:16:10;;;;;;;3.07;2.87;;;16.10;99.90;;;;;;493199;241;28822;-71
2022/08/02 04:18:11;;;;;;;3.40;3.20;;;16.10;99.90;;;;;;493234;241;29151;-68
2022/08/02 04:20:12;;;;;;;3.17;2.97;;;16.00;99.90;;;;;;493256;241;29173;-69
2022/08/02 04:22:14;;;;;;;3.80;3.50;;;16.10;99.90;;;;;;493251;241;29251;-67
2022/08/02 04:24:16;;;;;;;3.60;3.23;;;16.20;99.90;;;;;;493249;241;28689;-69
2022/08/02 04:26:16;;;;;;;3.80;3.47;;;16.10;99.90;;;;;;493209;241;28733;-71
2022/08/02 04:28:17;;;;;;;3.23;3.00;;;16.20;99.90;;;;;;493262;241;28666;-68
2022/08/02 04:30:19;;;;;;;3.40;3.10;;;16.30;99.90;;;;;;493267;241;28728;-68
2022/08/02 04:32:20;;;;;;;3.10;2.90;;;16.30;99.90;;;;;;493237;241;28666;-68
2022/08/02 04:34:21;;;;;;;3.50;3.30;;;16.40;99.90;;;;;;493246;241;28746;-68
2022/08/02 04:36:22;;;;;;;2.90;2.70;;;16.40;99.90;;;;;;493098;241;28746;-71
2022/08/02 04:38:24;;;;;;;3.13;2.93;;;16.40;99.90;;;;;;493255;241;28679;-68
2022/08/02 04:40:25;;;;;;;4.00;3.43;;;16.40;99.90;;;;;;493184;241;28732;-68
2022/08/02 04:42:26;;;;;;;3.33;3.13;;;16.40;99.90;;;;;;493091;241;30315;-68
2022/08/02 04:44:27;;;;;;;3.20;3.00;;;16.30;99.90;;;;;;493084;241;29213;-68
2022/08/02 04:46:29;;;;;;;3.53;3.30;;;16.30;99.90;;;;;;493057;241;29183;-70
2022/08/02 04:48:30;;;;;;;3.30;3.10;;;16.30;99.90;;;;;;493069;241;29232;-68
2022/08/02 04:50:31;;;;;;;5.40;2.93;;;16.40;99.90;;;;;;493237;241;28692;-68
2022/08/02 04:52:32;;;;;;;3.20;3.00;;;16.30;99.90;;;;;;493287;241;28775;-68
2022/08/02 04:54:34;;;;;;;3.57;3.27;;;16.30;99.90;;;;;;493272;241;28656;-68
2022/08/02 04:56:35;;;;;;;3.00;2.80;;;16.30;99.90;;;;;;493203;241;28769;-69
2022/08/02 04:58:36;;;;;;;3.50;3.30;;;16.30;99.90;;;;;;493236;241;28739;-68
2022/08/02 05:00:37;;;;;;;3.37;3.03;;;16.20;99.90;;;;;;493234;241;28721;-68
2022/08/02 05:02:39;;;;;;;3.30;3.10;;;16.20;99.90;;;;;;493274;241;28799;-72
2022/08/02 05:04:40;;;;;;;3.10;2.90;;;16.20;99.90;;;;;;493280;241;28693;-68
2022/08/02 05:06:41;;;;;;;3.43;3.20;;;16.30;99.90;;;;;;493184;241;29110;-69
2022/08/02 05:08:42;;;;;;;3.30;3.10;;;16.40;99.90;;;;;;493262;241;29137;-69
2022/08/02 05:10:44;;;;;;;3.27;3.07;;;16.30;99.90;;;;;;493274;241;29172;-69
2022/08/02 05:12:45;;;;;;;3.13;2.93;;;16.30;99.90;;;;;;493288;241;29472;-71
2022/08/02 05:14:46;;;;;;;3.60;3.40;;;16.20;99.90;;;;;;493277;241;28804;-68
2022/08/02 05:16:47;;;;;;;3.27;3.07;;;16.20;99.90;;;;;;493190;241;28701;-70
2022/08/02 05:18:49;;;;;;;3.07;2.87;;;16.20;99.90;;;;;;493243;241;28672;-68
2022/08/02 05:20:50;;;;;;;3.10;2.80;;;16.10;99.90;;;;;;493205;241;28696;-69
2022/08/02 05:22:51;;;;;;;3.40;3.20;;;16.20;99.90;;;;;;493277;241;28697;-71
2022/08/02 05:24:52;;;;;;;3.80;3.47;;;16.20;99.90;;;;;;493251;241;28784;-68
2022/08/02 05:26:54;;;;;;;3.27;3.07;;;16.20;99.90;;;;;;493204;241;28819;-70
2022/08/02 05:28:55;;;;;;;3.20;3.00;;;16.30;99.90;;;;;;493279;241;28678;-68
2022/08/02 05:30:56;;;;;;;3.10;2.90;;;16.40;99.90;;;;;;493206;241;28752;-68
2022/08/02 05:32:57;;;;;;;4.43;2.97;;;16.40;99.90;;;;;;492859;241;29156;-72
2022/08/02 05:34:59;;;;;;;3.00;2.80;;;16.50;99.90;;;;;;493166;241;29229;-69
2022/08/02 05:37:00;;;;;;;3.03;2.83;;;16.50;99.90;;;;;;493172;241;29210;-69
2022/08/02 05:39:01;;;;;;;3.23;3.03;;;16.60;99.90;;;;;;493282;241;28672;-68
2022/08/02 05:41:03;;;;;;;4.03;2.90;;;16.50;99.90;;;;;;493265;241;28749;-69
2022/08/02 05:43:04;;;;;;;3.00;2.80;;;16.60;99.90;;;;;;493310;241;28742;-72
2022/08/02 05:45:05;;;;;;;3.30;3.10;;;16.70;99.90;;;;;;493289;241;28679;-69
2022/08/02 05:47:06;;;;;;;3.00;2.80;;;16.80;99.90;;;;;;493177;241;28724;-69
2022/08/02 05:49:08;;;;;;;3.30;3.10;;;16.90;99.90;;;;;;493271;241;28736;-68
2022/08/02 05:51:09;;;;;;;3.20;3.00;;;16.90;99.90;;;;;;493249;241;28791;-69
2022/08/02 05:53:10;;;;;;;3.40;3.10;;;17.00;99.90;;;;;;493276;241;28709;-72
2022/08/02 05:55:14;;;;;;;3.33;3.13;;;17.00;99.90;;;;;;493265;241;28765;-68
2022/08/02 05:57:16;;;;;;;4.20;3.03;;;17.00;99.90;;;;;;493181;241;29080;-68
2022/08/02 05:59:17;;;;;;;2.87;2.73;;;17.00;99.90;;;;;;493271;241;28721;-69
2022/08/02 06:01:18;;;;;;;3.47;3.17;;;17.00;99.90;;;;;;493250;241;28668;-68
2022/08/02 06:03:19;;;;;;;3.20;3.00;;;17.10;99.90;;;;;;493227;241;28709;-69
2022/08/02 06:05:20;;;;;;;3.10;2.90;;;17.20;99.90;;;;;;493278;241;28801;-71
2022/08/02 06:07:22;;;;;;;4.40;3.97;;;17.30;99.90;;;;;;493225;241;28680;-68
2022/08/02 06:09:23;;;;;;;2.50;2.40;;;17.50;99.90;;;;;;493267;241;28795;-69
2022/08/02 06:11:24;;;;;;;3.10;2.90;;;17.60;99.90;;;;;;493270;241;29128;-68
2022/08/02 06:13:25;;;;;;;3.10;2.90;;;17.70;99.90;;;;;;493257;241;29164;-69
2022/08/02 06:15:27;;;;;;;3.03;2.83;;;17.90;99.90;;;;;;493278;241;29281;-72
2022/08/02 06:17:28;;;;;;;3.43;3.13;;;18.10;99.90;;;;;;493226;241;29135;-68
2022/08/02 06:19:29;;;;;;;3.03;2.83;;;18.30;99.90;;;;;;493266;241;28779;-70
2022/08/02 06:21:30;;;;;;;2.77;2.67;;;18.40;99.90;;;;;;493254;241;28668;-69
2022/08/02 06:23:32;;;;;;;3.10;2.90;;;18.60;99.90;;;;;;493267;241;28695;-70
2022/08/02 06:25:33;;;;;;;3.33;3.13;;;18.80;99.90;;;;;;493292;241;28697;-73
2022/08/02 06:27:34;;;;;;;3.10;2.90;;;18.90;99.90;;;;;;493212;241;28662;-69
2022/08/02 06:29:35;;;;;;;3.13;2.93;;;19.00;99.90;;;;;;493278;241;28700;-69
2022/08/02 06:31:37;;;;;;;4.10;3.30;;;19.10;99.90;;;;;;493250;241;28821;-69
2022/08/02 06:33:38;;;;;;;3.17;2.97;;;19.10;99.90;;;;;;493247;241;28821;-69
2022/08/02 06:35:39;;;;;;;2.87;2.77;;;19.10;99.90;;;;;;493188;241;28716;-71
2022/08/02 06:37:40;;;;;;;2.87;2.67;;;19.10;99.90;;;;;;493218;241;29145;-69
2022/08/02 06:39:42;;;;;;;2.83;2.70;;;19.10;99.90;;;;;;493271;241;29194;-70
2022/08/02 06:41:43;;;;;;;3.07;2.87;;;19.20;99.90;;;;;;493260;241;29225;-68
2022/08/02 06:43:44;;;;;;;3.17;2.97;;;19.30;99.90;;;;;;493275;241;28767;-69
2022/08/02 06:45:45;;;;;;;2.90;2.70;;;19.30;99.90;;;;;;493274;241;28792;-70
2022/08/02 06:47:47;;;;;;;3.10;2.90;;;19.40;99.90;;;;;;493219;241;28713;-69
2022/08/02 06:49:48;;;;;;;3.10;2.90;;;19.40;99.90;;;;;;493266;241;28711;-71
2022/08/02 06:51:49;;;;;;;3.40;2.87;;;19.40;99.90;;;;;;493280;241;28669;-69
2022/08/02 06:53:50;;;;;;;3.17;2.97;;;19.50;99.90;;;;;;493249;241;28704;-71
2022/08/02 06:55:52;;;;;;;3.20;3.00;;;19.70;99.90;;;;;;493264;241;29088;-72
2022/08/02 06:57:53;;;;;;;3.17;2.97;;;20.00;99.90;;;;;;493229;241;28784;-68
2022/08/02 06:59:54;;;;;;;3.37;3.07;;;20.20;99.90;;;;;;493268;241;28701;-70
2022/08/02 07:01:58;;;;;;;3.37;3.17;;;20.30;99.90;;;;;;493252;241;29140;-69
2022/08/02 07:03:57;;;;;;;2.77;2.67;;;20.40;99.90;;;;;;493087;241;29273;-69
2022/08/02 07:05:58;;;;;;;3.30;3.10;;;20.30;99.90;;;;;;493286;241;29274;-72
2022/08/02 07:07:59;;;;;;;3.00;2.83;;;20.30;99.90;;;;;;493205;241;28751;-76
2022/08/02 07:10:01;;;;;;;2.90;2.80;;;20.30;99.90;;;;;;493290;241;28784;-70
2022/08/02 07:12:02;;;;;;;3.33;3.03;;;20.30;99.90;;;;;;493104;241;28672;-69
2022/08/02 07:14:03;;;;;;;3.27;3.13;;;20.40;99.90;;;;;;493246;241;28712;-69
2022/08/02 07:16:04;;;;;;;3.20;3.00;;;20.40;99.90;;;;;;493202;241;28718;-73
2022/08/02 07:18:06;;;;;;;3.20;3.00;;;20.40;99.90;;;;;;493249;241;28775;-69
2022/08/02 07:20:08;;;;;;;2.87;2.67;;;20.40;99.90;;;;;;493146;241;28740;-71
2022/08/02 07:22:08;;;;;;;3.60;3.30;;;20.60;99.90;;;;;;493177;241;28759;-69
2022/08/02 07:24:09;;;;;;;3.70;3.40;;;20.60;99.90;;;;;;493239;241;28710;-69
2022/08/02 07:26:11;;;;;;;3.20;3.00;;;20.70;99.90;;;;;;493222;241;29318;-72
2022/08/02 07:28:14;;;;;;;4.40;4.00;;;20.80;99.90;;;;;;493257;241;29268;-69
2022/08/02 07:30:13;;;;;;;3.10;2.90;;;20.80;99.90;;;;;;493116;241;29174;-71
2022/08/02 07:32:14;;;;;;;3.10;2.90;;;20.80;99.90;;;;;;493264;241;28679;-69
2022/08/02 07:34:16;;;;;;;4.13;3.27;;;20.80;99.90;;;;;;493236;241;28703;-69
2022/08/02 07:36:17;;;;;;;3.00;2.80;;;20.90;99.90;;;;;;493129;241;28733;-72
2022/08/02 07:38:21;;;;;;;2.70;2.57;;;21.00;99.90;;;;;;493264;241;28742;-69
2022/08/02 07:40:19;;;;;;;3.03;2.83;;;21.00;99.90;;;;;;493008;241;28696;-70
2022/08/02 07:42:21;;;;;;;4.23;2.97;;;21.00;99.90;;;;;;493252;241;28688;-69
2022/08/02 07:44:22;;;;;;;2.50;2.40;;;21.00;99.90;;;;;;493262;241;28788;-69
2022/08/02 07:46:24;;;;;;;3.00;2.80;;;21.00;99.90;;;;;;493210;241;28751;-72
2022/08/02 07:48:24;;;;;;;3.20;3.00;;;21.00;99.90;;;;;;493235;241;28668;-69
2022/08/02 07:50:27;;;;;;;2.60;2.43;;;21.20;99.90;;;;;;493257;241;29177;-70
2022/08/02 07:52:27;;;;;;;2.70;2.50;;;21.30;99.90;;;;;;493167;241;29284;-69
2022/08/02 07:54:28;;;;;;;4.23;2.60;;;21.30;99.90;;;;;;493251;241;29237;-69
2022/08/02 07:56:29;;;;;;;2.70;2.60;;;21.30;99.90;;;;;;493236;241;29176;-72
2022/08/02 07:58:31;;;;;;;3.13;2.93;;;21.40;99.90;;;;;;493265;241;28668;-69
2022/08/02 08:00:32;;;;;;;3.00;2.80;;;21.30;99.90;;;;;;493264;241;28700;-70
2022/08/02 08:02:33;;;;;;;3.17;2.97;;;21.30;99.90;;;;;;493290;241;28830;-69
2022/08/02 08:04:34;;;;;;;2.83;2.63;;;21.40;99.90;;;;;;493294;241;28701;-69
2022/08/02 08:06:36;;;;;;;2.90;2.70;;;21.40;99.90;;;;;;493211;241;28747;-72
2022/08/02 08:08:37;;;;;;;2.80;2.60;;;21.40;99.90;;;;;;493292;241;28791;-69
2022/08/02 08:10:38;;;;;;;2.77;2.57;;;21.50;99.90;;;;;;493278;241;28819;-70
2022/08/02 08:12:39;;;;;;;2.30;2.20;;;21.60;99.90;;;;;;493269;241;28672;-69
2022/08/02 08:14:41;;;;;;;2.30;2.20;;;21.50;99.90;;;;;;493263;241;28775;-70
2022/08/02 08:16:42;;;;;;;2.20;2.10;;;21.40;99.90;;;;;;493242;241;29187;-73
2022/08/02 08:18:43;;;;;;;2.90;2.70;;;21.40;99.90;;;;;;493292;241;29138;-69
2022/08/02 08:20:44;;;;;;;2.43;2.33;;;21.60;99.90;;;;;;493286;241;29286;-70
2022/08/02 08:22:46;;;;;;;2.67;2.57;;;21.70;99.90;;;;;;493283;241;28672;-71
2022/08/02 08:24:47;;;;;;;2.47;2.30;;;21.90;99.90;;;;;;493279;241;28712;-69
2022/08/02 08:26:48;;;;;;;2.40;2.30;;;22.00;99.90;;;;;;493266;241;28708;-72
2022/08/02 08:28:49;;;;;;;2.27;2.17;;;22.00;99.90;;;;;;493293;241;28691;-69
2022/08/02 08:30:51;;;;;;;2.50;2.40;;;22.10;99.90;;;;;;493261;241;28763;-70
2022/08/02 08:32:52;;;;;;;2.23;2.13;;;22.10;99.90;;;;;;493286;241;28680;-69
2022/08/02 08:34:53;;;;;;;2.10;2.00;;;22.30;99.90;;;;;;493274;241;28710;-76
2022/08/02 08:36:54;;;;;;;2.30;2.20;;;22.20;99.90;;;;;;493190;241;28716;-70
2022/08/02 08:38:56;;;;;;;2.60;2.00;;;22.30;99.90;;;;;;493301;241;28689;-69
2022/08/02 08:40:57;;;;;;;2.60;2.03;;;22.30;99.90;;;;;;493205;241;29281;-69
2022/08/02 08:42:58;;;;;;;2.50;2.10;;;22.30;99.90;;;;;;493241;241;29115;-69
2022/08/02 08:44:59;;;;;;;2.50;2.30;;;22.40;99.90;;;;;;493295;241;29217;-69
2022/08/02 08:47:01;;;;;;;2.47;2.27;;;22.60;99.90;;;;;;493233;241;28783;-71
2022/08/02 08:49:02;;;;;;;2.37;2.27;;;22.50;99.90;;;;;;493263;241;28763;-69
2022/08/02 08:51:04;;;;;;;2.37;2.27;;;22.60;99.90;;;;;;493234;241;28770;-70
2022/08/02 08:53:04;;;;;;;2.87;2.63;;;22.70;99.90;;;;;;493214;241;28743;-69
2022/08/02 08:55:06;;;;;;;2.63;2.43;;;22.70;99.90;;;;;;493273;241;28684;-69
2022/08/02 08:57:07;;;;;;;2.50;2.30;;;22.70;99.90;;;;;;493140;241;28715;-72
2022/08/02 08:59:08;;;;;;;2.57;2.40;;;22.80;99.90;;;;;;493243;241;28662;-70
2022/08/02 09:01:09;;;;;;;2.80;2.53;;;22.70;99.90;;;;;;493282;241;28700;-71
2022/08/02 09:03:11;;;;;;;2.23;2.13;;;22.60;99.90;;;;;;493253;241;28842;-69
2022/08/02 09:05:12;;;;;;;2.60;2.13;;;22.70;99.90;;;;;;493296;241;29255;-69
2022/08/02 09:07:13;;;;;;;2.30;2.20;;;22.80;99.90;;;;;;493156;241;29195;-72
2022/08/02 09:09:14;;;;;;;2.60;2.40;;;22.70;99.90;;;;;;493276;241;29250;-69
2022/08/02 09:11:16;;;;;;;2.17;2.07;;;22.60;99.90;;;;;;493268;241;28839;-69
2022/08/02 09:13:19;;;;;;;2.17;2.07;;;22.50;99.90;;;;;;493248;241;28776;-69
2022/08/02 09:15:18;;;;;;;2.20;2.00;;;22.40;99.90;;;;;;493171;241;28687;-69
2022/08/02 09:17:20;;;;;;;2.23;2.13;;;22.60;99.90;;;;;;493219;241;28738;-71
2022/08/02 09:19:21;;;;;;;1.90;1.80;;;22.70;99.90;;;;;;493264;241;28747;-69
2022/08/02 09:21:22;;;;;;;2.17;1.97;;;22.90;99.90;;;;;;493271;241;28714;-69
2022/08/02 09:23:23;;;;;;;2.00;1.80;;;23.20;99.90;;;;;;493251;241;28693;-69
2022/08/02 09:25:24;;;;;;;1.97;1.87;;;23.40;99.90;;;;;;493279;241;28806;-69
2022/08/02 09:27:26;;;;;;;4.70;1.90;;;23.50;99.90;;;;;;493031;241;28730;-71
2022/08/02 09:29:27;;;;;;;2.00;1.90;;;23.50;99.90;;;;;;493289;241;29198;-69
2022/08/02 09:31:28;;;;;;;2.00;1.90;;;23.60;99.90;;;;;;493254;241;29165;-69
2022/08/02 09:33:29;;;;;;;1.90;1.80;;;23.60;99.90;;;;;;493276;241;29423;-69
2022/08/02 09:35:31;;;;;;;2.10;2.00;;;23.50;99.90;;;;;;493168;241;29247;-69
2022/08/02 09:37:32;;;;;;;2.00;1.90;;;23.30;99.90;;;;;;493219;241;28850;-71
2022/08/02 09:39:33;;;;;;;1.97;1.87;;;23.20;99.90;;;;;;493272;241;28664;-69
2022/08/02 09:41:34;;;;;;;1.93;1.70;;;23.20;99.90;;;;;;493242;241;28698;-69
2022/08/02 09:43:36;;;;;;;1.90;1.80;;;23.20;99.90;;;;;;493291;241;28695;-72
2022/08/02 09:45:37;;;;;;;1.80;1.70;;;23.20;99.90;;;;;;493262;241;28735;-70
2022/08/02 09:47:38;;;;;;;1.93;1.83;;;23.20;99.90;;;;;;493202;241;28798;-70
2022/08/02 09:49:39;;;;;;;1.90;1.80;;;23.20;99.90;;;;;;493278;241;28667;-69
2022/08/02 09:51:41;;;;;;;2.00;1.90;;;23.20;99.90;;;;;;493270;241;28808;-69
2022/08/02 09:53:42;;;;;;;1.73;1.63;;;23.20;99.90;;;;;;493243;241;28702;-73
2022/08/02 09:55:43;;;;;;;2.60;1.83;;;23.20;99.90;;;;;;493272;241;28676;-70
2022/08/02 09:57:44;;;;;;;1.87;1.77;;;23.50;99.90;;;;;;493161;241;28711;-70
2022/08/02 09:59:46;;;;;;;1.80;1.70;;;23.70;99.90;;;;;;493259;241;28766;-69
2022/08/02 10:01:47;;;;;;;2.17;2.00;;;23.80;99.90;;;;;;493267;241;29199;-69
2022/08/02 10:03:48;;;;;;;1.80;1.70;;;23.90;99.90;;;;;;493282;241;29190;-73
2022/08/02 10:05:49;;;;;;;2.20;2.10;;;24.20;99.90;;;;;;493260;241;29137;-70
2022/08/02 10:07:51;;;;;;;1.97;1.83;;;24.20;99.90;;;;;;493196;241;28739;-70
2022/08/02 10:09:52;;;;;;;1.90;1.80;;;24.40;99.90;;;;;;493226;241;28769;-69
2022/08/02 10:11:53;;;;;;;2.00;1.90;;;24.50;99.90;;;;;;493253;241;28750;-70
2022/08/02 10:13:54;;;;;;;1.93;1.83;;;24.50;99.90;;;;;;493253;241;28703;-72
2022/08/02 10:15:56;;;;;;;1.80;1.70;;;24.60;99.90;;;;;;493249;241;28754;-69
2022/08/02 10:17:57;;;;;;;2.50;1.83;;;25.00;99.90;;;;;;493102;241;28745;-70
2022/08/02 10:19:58;;;;;;;1.70;1.60;;;25.30;99.90;;;;;;493257;241;28777;-69
2022/08/02 10:22:00;;;;;;;1.80;1.70;;;25.30;99.90;;;;;;493300;241;28681;-70
2022/08/02 10:24:01;;;;;;;1.70;1.60;;;25.10;99.90;;;;;;493294;241;28810;-70
2022/08/02 10:26:02;;;;;;;1.63;1.53;;;25.00;99.90;;;;;;493218;241;29202;-69
2022/08/02 10:28:03;;;;;;;2.00;1.90;;;25.00;99.90;;;;;;493244;241;29213;-69
2022/08/02 10:30:05;;;;;;;1.67;1.57;;;25.00;99.90;;;;;;493287;241;29252;-73
2022/08/02 10:32:06;;;;;;;1.90;1.80;;;25.00;99.90;;;;;;493281;241;29240;-70
2022/08/02 10:34:07;;;;;;;1.73;1.63;;;24.90;99.90;;;;;;493169;241;28714;-72